Time;durP1;ratioP1;P1;durP2;ratioP2;P2;SDS_P1;SDS_P2;PMS_P1;PMS_P2;Temp;Humidity;BMP_temperature;BMP_pressure;BME280_temperature;BME280_humidity;BME280_pressure;Samples;Min_cycle;Max_cycle;Signal;HPM_P1;HPM_P2
2021/07/17 00:01:23;;;;;;;26.70;10.13;;;18.00;99.90;;;;;;5092879;28;20577;-84
2021/07/17 00:04:11;;;;;;;23.70;9.80;;;18.00;99.90;;;;;;5076669;28;20135;-85
2021/07/17 00:07:07;;;;;;;22.20;10.02;;;18.00;99.90;;;;;;5078836;28;20286;-84
2021/07/17 00:09:54;;;;;;;33.15;10.43;;;18.10;99.90;;;;;;5078857;28;20048;-85
2021/07/17 00:12:43;;;;;;;22.08;10.70;;;18.10;99.90;;;;;;5078821;28;20044;-85
2021/07/17 00:15:30;;;;;;;25.38;10.35;;;18.00;99.90;;;;;;5055950;28;20068;-84
2021/07/17 00:18:19;;;;;;;25.05;9.48;;;17.90;99.90;;;;;;5071955;28;20048;-85
2021/07/17 00:21:06;;;;;;;29.40;10.15;;;17.80;99.90;;;;;;5057014;28;20134;-84
2021/07/17 00:23:53;;;;;;;24.02;9.60;;;17.90;99.90;;;;;;5061056;28;20178;-85
2021/07/17 00:26:40;;;;;;;24.65;9.38;;;17.90;99.90;;;;;;5075984;28;20136;-86
2021/07/17 00:29:27;;;;;;;26.10;10.38;;;17.80;99.90;;;;;;5061289;28;20123;-85
2021/07/17 00:32:14;;;;;;;21.58;9.32;;;17.70;99.90;;;;;;5062456;28;20058;-84
2021/07/17 00:35:04;;;;;;;26.75;10.32;;;17.60;99.90;;;;;;5061015;28;20060;-85
2021/07/17 00:37:51;;;;;;;23.02;9.10;;;17.60;99.90;;;;;;5060254;28;20121;-85
2021/07/17 00:40:38;;;;;;;25.85;10.27;;;17.60;99.90;;;;;;5061343;28;20048;-86
2021/07/17 00:43:25;;;;;;;25.50;9.20;;;17.60;99.90;;;;;;5062192;28;20044;-85
2021/07/17 00:46:12;;;;;;;26.63;9.75;;;17.70;99.90;;;;;;5061779;28;20425;-85
2021/07/17 00:48:59;;;;;;;22.70;8.68;;;17.70;99.90;;;;;;5060854;28;20041;-85
2021/07/17 00:51:48;;;;;;;22.27;8.63;;;17.80;99.90;;;;;;5060457;28;20101;-84
2021/07/17 00:54:36;;;;;;;24.98;8.98;;;17.90;99.90;;;;;;5060939;28;20044;-84
2021/07/17 00:57:24;;;;;;;20.65;9.35;;;18.00;99.90;;;;;;5075890;28;20439;-85
2021/07/17 01:00:13;;;;;;;25.27;8.93;;;18.00;99.90;;;;;;5059824;28;20189;-84
2021/07/17 01:03:06;;;;;;;22.20;8.98;;;18.00;99.90;;;;;;5086936;28;20135;-85
2021/07/17 01:05:55;;;;;;;27.17;10.00;;;17.90;99.90;;;;;;5073153;28;20514;-85
2021/07/17 01:08:43;;;;;;;22.73;9.05;;;17.70;99.90;;;;;;5059470;28;20108;-85
2021/07/17 01:11:30;;;;;;;25.85;9.40;;;17.60;99.90;;;;;;5059851;28;20049;-84
2021/07/17 01:14:18;;;;;;;20.23;8.23;;;17.70;99.90;;;;;;5083924;28;20051;-84
2021/07/17 01:17:05;;;;;;;22.83;8.90;;;17.80;99.90;;;;;;5099870;28;20046;-84
2021/07/17 01:19:53;;;;;;;28.05;9.40;;;17.80;99.90;;;;;;5099723;28;20047;-85
2021/07/17 01:22:42;;;;;;;23.05;8.18;;;17.90;99.90;;;;;;5099010;28;20431;-85
2021/07/17 01:25:31;;;;;;;22.85;9.65;;;17.90;99.90;;;;;;5113891;28;20047;-84
2021/07/17 01:28:18;;;;;;;24.35;9.30;;;17.80;99.90;;;;;;5114056;28;20468;-84
2021/07/17 01:31:05;;;;;;;22.48;9.00;;;17.70;99.90;;;;;;5099151;28;20054;-85
2021/07/17 01:33:52;;;;;;;21.67;8.63;;;17.70;99.90;;;;;;5098294;28;20054;-84
2021/07/17 01:36:40;;;;;;;28.52;9.88;;;17.90;99.90;;;;;;5095690;28;20058;-84
2021/07/17 01:39:28;;;;;;;24.60;8.95;;;17.90;99.90;;;;;;5078845;28;20044;-85
2021/07/17 01:42:16;;;;;;;29.00;9.80;;;17.90;99.90;;;;;;5093216;28;20044;-85
2021/07/17 01:45:05;;;;;;;26.95;9.65;;;17.90;99.90;;;;;;5093266;28;20505;-84
2021/07/17 01:47:52;;;;;;;25.65;9.15;;;17.90;99.90;;;;;;5078371;28;20040;-84
2021/07/17 01:50:41;;;;;;;21.85;9.00;;;18.00;99.90;;;;;;5091524;28;20523;-85
2021/07/17 01:53:28;;;;;;;19.33;9.02;;;18.00;99.90;;;;;;5094014;28;20119;-84
2021/07/17 01:56:17;;;;;;;26.20;10.13;;;18.00;99.90;;;;;;5093435;28;20560;-84
2021/07/17 01:59:04;;;;;;;21.73;9.75;;;18.00;99.90;;;;;;5077345;28;20046;-84
2021/07/17 02:01:51;;;;;;;18.48;8.48;;;18.00;99.90;;;;;;5076813;28;20040;-86
2021/07/17 02:04:39;;;;;;;21.65;8.65;;;18.10;99.90;;;;;;5077385;28;20040;-83
2021/07/17 02:07:26;;;;;;;25.40;9.95;;;18.00;99.90;;;;;;5078596;28;20042;-84
2021/07/17 02:10:15;;;;;;;28.23;10.57;;;18.10;99.90;;;;;;5077916;28;20513;-83
2021/07/17 02:13:05;;;;;;;26.05;9.50;;;18.10;99.90;;;;;;5094075;28;20044;-85
2021/07/17 02:15:52;;;;;;;23.88;9.52;;;18.00;99.90;;;;;;5113176;28;20118;-85
2021/07/17 02:18:42;;;;;;;24.98;9.40;;;18.00;99.90;;;;;;5098987;28;20040;-84
2021/07/17 02:21:29;;;;;;;25.85;9.32;;;18.00;99.90;;;;;;5112894;28;20130;-84
2021/07/17 02:24:18;;;;;;;22.73;9.38;;;18.00;99.90;;;;;;5113871;28;20048;-85
2021/07/17 02:27:05;;;;;;;27.25;9.90;;;17.90;99.90;;;;;;5099583;28;20055;-84
2021/07/17 02:29:54;;;;;;;23.25;9.73;;;17.90;99.90;;;;;;5114180;28;20058;-85
2021/07/17 02:32:41;;;;;;;21.13;9.50;;;17.90;99.90;;;;;;5113098;28;20042;-84
2021/07/17 02:35:28;;;;;;;22.30;9.18;;;17.90;99.90;;;;;;5097650;28;20505;-84
2021/07/17 02:38:15;;;;;;;19.33;9.13;;;17.90;99.90;;;;;;5098071;28;20042;-85
2021/07/17 02:41:03;;;;;;;21.38;9.45;;;17.90;99.90;;;;;;5098236;28;20047;-84
2021/07/17 02:43:50;;;;;;;29.00;10.27;;;17.90;99.90;;;;;;5113703;28;20067;-85
2021/07/17 02:46:39;;;;;;;23.58;10.32;;;17.80;99.90;;;;;;5113140;28;20131;-84
2021/07/17 02:49:26;;;;;;;31.23;9.93;;;17.80;99.90;;;;;;5113858;28;20577;-85
2021/07/17 02:52:13;;;;;;;22.55;9.35;;;17.70;99.90;;;;;;5098473;28;20039;-85
2021/07/17 02:55:01;;;;;;;27.65;10.48;;;17.70;99.90;;;;;;5098280;28;20122;-85
2021/07/17 02:57:48;;;;;;;21.33;9.70;;;17.70;99.90;;;;;;5098218;28;20135;-86
2021/07/17 03:00:35;;;;;;;22.45;9.43;;;17.70;99.90;;;;;;5096984;28;20153;-84
2021/07/17 03:03:25;;;;;;;24.15;9.77;;;17.70;99.90;;;;;;5099021;28;20047;-86
2021/07/17 03:06:12;;;;;;;19.37;10.20;;;17.70;99.90;;;;;;5113650;28;20052;-84
2021/07/17 03:09:03;;;;;;;29.85;10.00;;;17.80;99.90;;;;;;5098821;28;20289;-85
2021/07/17 03:11:50;;;;;;;25.30;10.60;;;17.80;99.90;;;;;;5113910;28;20047;-84
2021/07/17 03:14:37;;;;;;;29.00;10.13;;;17.80;99.90;;;;;;5082890;28;20127;-85
2021/07/17 03:17:25;;;;;;;29.13;10.13;;;17.80;99.90;;;;;;5076508;28;20044;-84
2021/07/17 03:20:14;;;;;;;20.83;9.15;;;17.60;99.90;;;;;;5077593;28;20169;-83
2021/07/17 03:23:01;;;;;;;29.85;10.43;;;17.60;99.90;;;;;;5092618;28;20052;-84
2021/07/17 03:25:48;;;;;;;22.52;9.80;;;17.60;99.90;;;;;;5077355;28;20542;-86
2021/07/17 03:28:35;;;;;;;29.88;9.82;;;17.60;99.90;;;;;;5079381;28;20048;-84
2021/07/17 03:31:26;;;;;;;25.80;9.27;;;17.50;99.90;;;;;;5093692;28;20044;-85
2021/07/17 03:34:13;;;;;;;31.02;10.75;;;17.50;99.90;;;;;;5079104;28;20068;-84
2021/07/17 03:37:02;;;;;;;25.40;9.55;;;17.50;99.90;;;;;;5077122;28;20089;-84
2021/07/17 03:39:50;;;;;;;27.80;10.35;;;17.40;99.90;;;;;;5077157;28;20523;-84
2021/07/17 03:42:37;;;;;;;22.88;9.75;;;17.40;99.90;;;;;;5079331;28;20066;-85
2021/07/17 03:45:24;;;;;;;26.80;9.02;;;17.50;99.90;;;;;;5093079;28;20044;-85
2021/07/17 03:48:11;;;;;;;25.90;10.20;;;17.50;99.90;;;;;;5078134;28;20201;-86
2021/07/17 03:50:59;;;;;;;28.10;9.70;;;17.40;99.90;;;;;;5079325;28;20052;-85
2021/07/17 03:53:47;;;;;;;28.15;9.57;;;17.50;99.90;;;;;;5078928;28;20048;-85
2021/07/17 03:56:34;;;;;;;27.90;9.93;;;17.60;99.90;;;;;;5078779;28;20570;-86
2021/07/17 03:59:21;;;;;;;24.60;9.80;;;17.60;99.90;;;;;;5095902;28;20044;-84
2021/07/17 04:02:08;;;;;;;23.55;9.07;;;17.50;99.90;;;;;;5096258;28;20052;-85
2021/07/17 04:04:57;;;;;;;28.02;10.05;;;17.60;99.90;;;;;;5097097;28;20048;-85
2021/07/17 04:07:45;;;;;;;26.02;10.40;;;17.60;99.90;;;;;;5081801;28;20048;-85
2021/07/17 04:10:33;;;;;;;26.25;9.02;;;17.60;99.90;;;;;;5096753;28;20541;-85
2021/07/17 04:13:21;;;;;;;25.35;10.00;;;17.60;99.90;;;;;;5086144;28;20118;-85
2021/07/17 04:16:08;;;;;;;23.33;9.00;;;17.80;99.90;;;;;;5101627;28;20040;-84
2021/07/17 04:18:55;;;;;;;22.95;9.27;;;17.70;99.90;;;;;;5101477;28;20062;-85
2021/07/17 04:21:42;;;;;;;21.05;9.57;;;17.80;99.90;;;;;;5104165;28;20044;-86
2021/07/17 04:24:29;;;;;;;26.10;9.35;;;17.90;99.90;;;;;;5106641;28;20047;-86
2021/07/17 04:27:18;;;;;;;24.73;8.80;;;17.90;99.90;;;;;;5122040;28;20130;-84
2021/07/17 04:30:06;;;;;;;23.98;9.13;;;18.00;99.90;;;;;;5106540;28;20074;-85
2021/07/17 04:32:53;;;;;;;27.25;9.55;;;18.10;99.90;;;;;;5107858;28;20047;-84
2021/07/17 04:35:41;;;;;;;29.33;9.75;;;18.10;99.90;;;;;;5131700;28;20044;-84
2021/07/17 04:38:28;;;;;;;25.45;9.50;;;18.00;99.90;;;;;;5100760;28;20039;-86
2021/07/17 04:41:15;;;;;;;18.02;8.35;;;18.00;99.90;;;;;;5101944;28;20048;-86
2021/07/17 04:44:03;;;;;;;21.67;8.65;;;18.10;99.90;;;;;;5101417;28;20633;-84
2021/07/17 04:46:51;;;;;;;25.33;8.43;;;18.10;99.90;;;;;;5101325;28;20051;-85
2021/07/17 04:49:38;;;;;;;25.17;9.05;;;18.20;99.90;;;;;;5101011;28;20040;-84
2021/07/17 04:52:25;;;;;;;26.08;8.88;;;18.20;99.90;;;;;;5115084;28;20039;-84
2021/07/17 04:55:12;;;;;;;25.17;9.13;;;18.00;99.90;;;;;;5100166;28;20405;-84
2021/07/17 04:57:59;;;;;;;25.35;9.15;;;18.00;99.90;;;;;;5100880;28;20451;-84
2021/07/17 05:00:48;;;;;;;25.15;8.93;;;18.10;99.90;;;;;;5100313;28;20052;-84
2021/07/17 05:03:35;;;;;;;27.27;9.15;;;18.10;99.90;;;;;;5100426;28;20424;-86
2021/07/17 05:06:22;;;;;;;27.90;10.20;;;18.20;99.90;;;;;;5115709;28;20130;-86
2021/07/17 05:09:09;;;;;;;26.33;8.88;;;18.10;99.90;;;;;;5100086;28;20103;-84
2021/07/17 05:11:57;;;;;;;24.75;8.60;;;18.00;99.90;;;;;;5099684;28;20058;-85
2021/07/17 05:14:44;;;;;;;32.13;8.82;;;18.00;99.90;;;;;;5084199;28;20501;-85
2021/07/17 05:17:33;;;;;;;23.85;8.02;;;18.00;99.90;;;;;;5095748;28;20631;-84
2021/07/17 05:20:20;;;;;;;24.52;7.63;;;18.00;99.90;;;;;;5095451;28;20123;-85
2021/07/17 05:23:07;;;;;;;24.92;8.38;;;17.90;99.90;;;;;;5081475;28;20040;-86
2021/07/17 05:25:54;;;;;;;26.40;8.15;;;17.80;99.90;;;;;;5080710;28;20044;-84
2021/07/17 05:28:41;;;;;;;25.38;8.52;;;17.80;99.90;;;;;;5080879;28;20048;-86
2021/07/17 05:31:29;;;;;;;21.75;7.82;;;17.80;99.90;;;;;;5080815;28;20052;-86
2021/07/17 05:34:17;;;;;;;23.70;8.38;;;17.80;99.90;;;;;;5080248;28;20420;-85
2021/07/17 05:37:04;;;;;;;22.23;8.38;;;17.70;99.90;;;;;;5094856;28;20048;-86
2021/07/17 05:39:51;;;;;;;20.08;7.60;;;17.70;99.90;;;;;;5080402;28;20040;-85
2021/07/17 05:42:38;;;;;;;21.23;8.00;;;17.80;99.90;;;;;;5081158;28;20277;-87
2021/07/17 05:45:26;;;;;;;26.73;8.00;;;17.70;99.90;;;;;;5080908;28;20048;-85
2021/07/17 05:48:13;;;;;;;26.95;8.90;;;17.80;99.90;;;;;;5079771;28;20048;-85
2021/07/17 05:56:19;;;;;;;27.48;7.65;;;17.90;99.90;;;;;;5080279;28;20044;-84
2021/07/17 05:59:06;;;;;;;26.45;7.75;;;18.00;99.90;;;;;;5093385;28;20119;-86
2021/07/17 06:01:53;;;;;;;18.05;7.82;;;17.90;99.90;;;;;;5100357;28;20070;-86
2021/07/17 06:04:41;;;;;;;22.38;7.93;;;18.10;99.90;;;;;;5086664;28;20140;-86
2021/07/17 06:07:28;;;;;;;16.52;6.80;;;18.20;99.90;;;;;;5085514;28;20426;-84
2021/07/17 06:10:15;;;;;;;22.63;7.35;;;18.30;99.90;;;;;;5097116;28;20040;-86
2021/07/17 06:13:04;;;;;;;23.58;7.72;;;18.20;99.90;;;;;;5082834;28;20056;-84
2021/07/17 06:15:52;;;;;;;20.55;7.55;;;18.20;99.90;;;;;;5087604;28;20055;-85
2021/07/17 06:18:39;;;;;;;19.27;6.85;;;18.20;99.90;;;;;;5090953;28;20071;-87
2021/07/17 06:21:26;;;;;;;17.15;7.10;;;18.20;99.90;;;;;;5100231;28;20428;-86
2021/07/17 06:24:14;;;;;;;17.90;6.78;;;18.20;99.90;;;;;;5084759;28;20501;-86
2021/07/17 06:27:01;;;;;;;19.23;6.78;;;18.20;99.90;;;;;;5082718;28;20051;-86
2021/07/17 06:29:49;;;;;;;14.23;6.20;;;18.20;99.90;;;;;;5086860;28;20096;-86
2021/07/17 06:32:36;;;;;;;18.85;6.10;;;18.30;99.90;;;;;;5082396;28;20048;-85
2021/07/17 06:35:24;;;;;;;19.67;5.97;;;18.30;99.90;;;;;;5081781;28;20048;-86
2021/07/17 06:38:11;;;;;;;23.80;5.45;;;18.40;99.90;;;;;;5083683;28;20508;-86
2021/07/17 06:40:58;;;;;;;15.68;5.35;;;18.50;99.90;;;;;;5083214;28;20177;-86
2021/07/17 06:43:45;;;;;;;16.77;5.00;;;18.50;99.90;;;;;;5079297;28;20043;-85
2021/07/17 06:46:33;;;;;;;10.82;4.05;;;18.60;99.90;;;;;;5096967;28;20140;-86
2021/07/17 06:49:21;;;;;;;13.55;4.50;;;18.70;99.90;;;;;;5083046;28;20447;-84
2021/07/17 06:52:08;;;;;;;14.07;4.05;;;18.70;99.90;;;;;;5082865;28;20126;-86
2021/07/17 06:54:55;;;;;;;18.15;4.70;;;18.70;99.90;;;;;;5081076;28;20036;-86
2021/07/17 06:57:45;;;;;;;12.40;4.10;;;19.40;99.90;;;;;;5082494;28;20044;-85
2021/07/17 07:00:34;;;;;;;11.90;4.18;;;18.90;99.90;;;;;;5082589;28;20036;-85
2021/07/17 07:03:23;;;;;;;14.35;4.22;;;19.00;99.90;;;;;;5080714;28;20075;-84
2021/07/17 07:06:11;;;;;;;14.07;4.27;;;19.20;99.90;;;;;;5078736;28;20413;-85
2021/07/17 07:08:58;;;;;;;11.98;4.10;;;19.20;99.90;;;;;;5083702;28;20374;-85
2021/07/17 07:11:45;;;;;;;13.65;3.85;;;20.70;99.90;;;;;;5081988;28;20090;-86
2021/07/17 07:14:32;;;;;;;10.80;3.72;;;19.00;99.90;;;;;;5080465;28;20047;-86
2021/07/17 07:17:19;;;;;;;15.00;3.83;;;19.30;99.90;;;;;;5079945;28;20073;-86
2021/07/17 07:20:11;;;;;;;10.48;3.42;;;19.30;99.90;;;;;;5076881;28;20416;-83
2021/07/17 07:22:58;;;;;;;13.05;3.22;;;19.50;99.90;;;;;;5078677;28;20531;-86
2021/07/17 07:25:45;;;;;;;8.82;3.20;;;19.50;99.90;;;;;;5078857;28;20055;-85
2021/07/17 07:28:36;;;;;;;13.18;3.60;;;19.60;99.90;;;;;;5092333;28;20044;-86
2021/07/17 07:31:24;;;;;;;13.23;3.03;;;19.60;99.90;;;;;;5077568;28;20044;-85
2021/07/17 07:34:11;;;;;;;10.77;3.30;;;19.60;99.90;;;;;;5081568;28;20448;-86
2021/07/17 07:37:00;;;;;;;10.32;3.03;;;19.80;99.90;;;;;;5083256;28;20555;-86
2021/07/17 07:39:47;;;;;;;10.48;3.20;;;19.80;99.90;;;;;;5082723;28;20048;-85
2021/07/17 07:42:35;;;;;;;11.38;2.70;;;19.40;99.90;;;;;;5083270;28;20044;-86
2021/07/17 07:45:23;;;;;;;16.67;2.75;;;19.60;99.90;;;;;;5086246;28;20048;-85
2021/07/17 07:48:10;;;;;;;11.48;3.25;;;19.80;99.90;;;;;;5084534;28;20144;-86
2021/07/17 07:50:58;;;;;;;9.65;2.95;;;19.60;99.90;;;;;;5086880;28;20511;-86
2021/07/17 07:53:46;;;;;;;12.45;2.80;;;19.50;99.90;;;;;;5082892;28;20508;-86
2021/07/17 07:56:34;;;;;;;11.57;3.17;;;19.50;99.90;;;;;;5101225;28;20052;-85
2021/07/17 07:59:21;;;;;;;7.90;3.22;;;19.50;99.90;;;;;;5083690;28;20047;-83
2021/07/17 08:02:08;;;;;;;12.50;2.88;;;19.50;99.90;;;;;;5083162;28;20051;-86
2021/07/17 08:04:55;;;;;;;10.38;3.10;;;19.50;99.90;;;;;;5081337;28;20098;-86
2021/07/17 08:07:42;;;;;;;9.02;3.28;;;19.60;99.90;;;;;;5082945;28;20469;-86
2021/07/17 08:10:30;;;;;;;9.05;3.10;;;19.60;99.90;;;;;;5084857;28;20033;-86
2021/07/17 08:13:18;;;;;;;12.63;2.95;;;19.60;99.90;;;;;;5079215;28;20516;-86
2021/07/17 08:16:05;;;;;;;10.27;3.05;;;19.80;99.90;;;;;;5062215;28;20055;-86
2021/07/17 08:18:52;;;;;;;13.90;3.13;;;19.80;99.90;;;;;;5061730;28;20183;-85
2021/07/17 08:21:39;;;;;;;12.55;3.15;;;19.80;99.90;;;;;;5062691;28;20072;-86
2021/07/17 08:24:26;;;;;;;11.27;3.08;;;20.20;99.90;;;;;;5077002;28;20041;-84
2021/07/17 08:27:15;;;;;;;10.77;3.30;;;20.20;99.90;;;;;;5062462;28;20429;-86
2021/07/17 08:30:03;;;;;;;10.23;3.17;;;20.40;99.90;;;;;;5061399;28;20049;-86
2021/07/17 08:32:51;;;;;;;8.50;2.85;;;20.40;99.90;;;;;;5061211;28;20045;-86
2021/07/17 08:35:38;;;;;;;6.55;2.42;;;20.60;99.90;;;;;;5060664;28;20052;-86
2021/07/17 08:38:25;;;;;;;8.75;2.50;;;20.60;99.90;;;;;;5061326;28;20079;-86
2021/07/17 08:41:12;;;;;;;6.88;2.47;;;20.80;99.90;;;;;;5060299;28;20058;-87
2021/07/17 08:44:01;;;;;;;7.95;2.50;;;20.80;99.90;;;;;;5059681;28;20047;-87
2021/07/17 08:46:51;;;;;;;;;;;20.90;99.90;;;;;;5061064;28;20127;-86
2021/07/17 08:49:39;;;;;;;12.38;2.80;;;20.90;99.90;;;;;;5088878;28;20438;-86
2021/07/17 08:52:29;;;;;;;6.72;2.40;;;20.90;99.90;;;;;;5061948;28;20055;-86
2021/07/17 08:55:16;;;;;;;;;;;21.00;99.90;;;;;;5060967;28;20080;-83
2021/07/17 08:58:03;;;;;;;5.68;2.13;;;21.10;99.90;;;;;;5087690;28;20270;-86
2021/07/17 09:00:52;;;;;;;11.02;2.70;;;21.20;99.90;;;;;;5059700;28;20424;-86
2021/07/17 09:03:39;;;;;;;6.33;2.00;;;21.20;99.90;;;;;;5059544;28;20056;-87
2021/07/17 09:06:27;;;;;;;8.73;2.63;;;21.30;99.90;;;;;;5060170;28;20303;-84
2021/07/17 09:09:28;;;;;;;9.40;2.38;;;21.30;99.90;;;;;;5060563;28;20036;-86
2021/07/17 09:12:23;;;;;;;8.07;2.17;;;21.30;99.90;;;;;;5058407;28;20045;-83
2021/07/17 09:15:17;;;;;;;6.35;2.00;;;21.40;99.90;;;;;;5078011;28;20410;-86
2021/07/17 09:18:07;;;;;;;11.70;2.65;;;21.40;99.90;;;;;;5106829;28;20173;-86
2021/07/17 09:20:55;;;;;;;;;;;21.50;99.90;;;;;;5078123;28;20040;-86
2021/07/17 09:23:43;;;;;;;11.13;2.63;;;21.70;99.90;;;;;;5079594;28;19924;-85
2021/07/17 09:26:33;;;;;;;6.78;1.98;;;21.80;99.90;;;;;;5078275;28;20548;-86
2021/07/17 09:29:20;;;;;;;7.15;2.10;;;21.90;99.90;;;;;;5078802;28;20043;-83
2021/07/17 09:32:15;;;;;;;8.20;2.42;;;22.00;99.90;;;;;;5078263;28;20076;-86
2021/07/17 09:35:15;;;;;;;7.70;2.38;;;22.00;99.90;;;;;;5078523;28;20099;-84
2021/07/17 09:38:05;;;;;;;8.32;2.20;;;22.10;99.90;;;;;;5105854;28;20479;-86
2021/07/17 09:40:55;;;;;;;9.80;2.20;;;22.20;99.90;;;;;;5078978;28;20043;-87
2021/07/17 09:43:42;;;;;;;8.27;2.50;;;22.30;99.90;;;;;;5077872;28;20062;-86
2021/07/17 09:46:30;;;;;;;6.13;2.30;;;22.60;99.90;;;;;;5077650;28;20054;-84
2021/07/17 09:49:20;;;;;;;10.18;2.38;;;22.70;99.90;;;;;;5078528;28;20048;-86
2021/07/17 09:52:10;;;;;;;7.72;2.30;;;22.80;99.90;;;;;;5078379;28;20086;-86
2021/07/17 09:55:03;;;;;;;6.20;1.98;;;22.70;99.90;;;;;;5079377;28;20412;-87
2021/07/17 09:57:51;;;;;;;7.70;2.05;;;22.80;99.90;;;;;;5106351;28;20044;-86
2021/07/17 10:00:38;;;;;;;10.98;2.45;;;22.90;99.90;;;;;;5077753;28;20040;-84
2021/07/17 10:03:34;;;;;;;9.25;2.60;;;22.80;99.90;;;;;;5077232;28;20048;-87
2021/07/17 10:06:34;;;;;;;12.75;2.42;;;23.30;99.90;;;;;;5078838;28;20455;-87
2021/07/17 10:09:30;;;;;;;8.25;1.95;;;22.70;99.90;;;;;;5078384;28;20044;-86
2021/07/17 10:12:32;;;;;;;5.75;1.83;;;22.70;99.90;;;;;;5077224;28;20050;-87
2021/07/17 10:15:19;;;;;;;8.32;2.22;;;22.70;99.90;;;;;;5059619;28;20052;-86
2021/07/17 10:18:26;;;;;;;8.63;2.47;;;22.70;99.90;;;;;;5057543;28;20161;-87
2021/07/17 10:21:13;;;;;;;7.47;2.25;;;22.70;99.90;;;;;;5057095;28;20041;-87
2021/07/17 10:24:01;;;;;;;5.45;2.20;;;22.80;99.90;;;;;;5073394;28;20048;-87
2021/07/17 10:26:52;;;;;;;9.35;2.15;;;22.90;99.90;;;;;;5056784;28;20058;-85
2021/07/17 10:29:39;;;;;;;8.82;2.17;;;23.00;99.90;;;;;;5057353;28;20123;-86
2021/07/17 10:32:29;;;;;;;7.55;2.20;;;23.20;99.90;;;;;;5056518;28;20513;-86
2021/07/17 10:35:16;;;;;;;8.57;2.10;;;24.30;99.90;;;;;;5056998;28;20040;-86
2021/07/17 10:38:06;;;;;;;7.25;2.10;;;23.30;99.90;;;;;;5084145;28;20040;-86
2021/07/17 10:40:55;;;;;;;12.98;2.35;;;23.60;99.90;;;;;;5056691;28;20086;-86
2021/07/17 10:43:50;;;;;;;6.50;2.05;;;23.70;99.90;;;;;;5072002;28;20049;-83
2021/07/17 10:46:39;;;;;;;5.93;1.70;;;23.70;99.90;;;;;;5084038;28;20043;-86
2021/07/17 10:49:35;;;;;;;7.65;2.00;;;23.50;99.90;;;;;;5070558;28;20049;-86
2021/07/17 10:52:40;;;;;;;7.60;1.98;;;23.40;99.90;;;;;;5057521;28;20051;-86
2021/07/17 10:55:29;;;;;;;8.25;2.20;;;23.30;99.90;;;;;;5056308;28;20572;-86
2021/07/17 10:58:34;;;;;;;6.70;1.85;;;23.20;99.90;;;;;;5083953;28;20074;-86
2021/07/17 11:01:23;;;;;;;8.23;1.90;;;23.30;99.90;;;;;;5071995;28;20138;-83
2021/07/17 11:04:29;;;;;;;;;;;23.30;99.90;;;;;;5072086;28;20055;-86
2021/07/17 11:07:32;;;;;;;3.10;1.52;;;23.30;99.90;;;;;;5056815;28;19927;-86
2021/07/17 11:10:21;;;;;;;4.55;1.60;;;23.20;99.90;;;;;;5055351;28;20036;-86
2021/07/17 11:13:08;;;;;;;6.28;1.70;;;23.20;99.90;;;;;;5056927;28;20056;-84
2021/07/17 11:15:55;;;;;;;5.90;1.70;;;23.30;99.90;;;;;;5084816;28;20505;-86
2021/07/17 11:18:44;;;;;;;4.40;1.30;;;23.30;99.90;;;;;;5056708;28;20131;-85
2021/07/17 11:21:33;;;;;;;4.03;1.60;;;23.50;99.90;;;;;;5055741;28;20045;-85
2021/07/17 11:24:24;;;;;;;5.10;1.58;;;23.60;99.90;;;;;;5084313;28;20048;-86
2021/07/17 11:27:13;;;;;;;7.32;1.50;;;23.40;99.90;;;;;;5055583;28;20055;-86
2021/07/17 11:30:12;;;;;;;7.60;1.70;;;23.40;99.90;;;;;;5083909;28;20055;-86
2021/07/17 11:33:15;;;;;;;4.32;1.40;;;23.40;99.90;;;;;;5055799;28;20047;-86
2021/07/17 11:36:24;;;;;;;7.40;1.33;;;23.50;99.90;;;;;;5056819;28;20048;-86
2021/07/17 11:39:14;;;;;;;4.80;1.30;;;23.50;99.90;;;;;;5056325;28;20066;-84
2021/07/17 11:42:03;;;;;;;4.70;1.58;;;23.60;99.90;;;;;;5057883;28;20041;-86
2021/07/17 11:44:52;;;;;;;6.90;1.13;;;23.80;99.90;;;;;;5057778;28;20040;-85
2021/07/17 11:47:39;;;;;;;3.17;1.17;;;23.80;99.90;;;;;;5071179;28;20665;-87
2021/07/17 11:50:27;;;;;;;4.03;1.15;;;23.80;99.90;;;;;;5071737;28;20040;-86
2021/07/17 11:53:18;;;;;;;3.97;1.00;;;23.90;99.90;;;;;;5056188;28;20049;-87
2021/07/17 11:56:05;;;;;;;3.60;1.08;;;24.80;99.90;;;;;;5057678;28;20170;-87
2021/07/17 11:59:13;;;;;;;5.75;0.90;;;24.00;98.60;;;;;;5055171;28;20053;-87
2021/07/17 12:02:09;;;;;;;4.97;1.35;;;24.00;99.90;;;;;;5057111;28;20037;-86
2021/07/17 12:04:58;;;;;;;4.90;1.02;;;23.90;99.90;;;;;;5056401;28;20177;-86
2021/07/17 12:07:47;;;;;;;4.60;1.17;;;24.00;99.90;;;;;;5056093;28;20055;-86
2021/07/17 12:10:35;;;;;;;5.97;1.13;;;24.00;99.90;;;;;;5082692;28;20051;-86
2021/07/17 12:13:22;;;;;;;3.45;0.80;;;24.00;99.90;;;;;;5063756;28;20129;-86
2021/07/17 12:16:19;;;;;;;6.95;1.10;;;24.20;99.40;;;;;;5063507;28;20504;-87
2021/07/17 12:19:06;;;;;;;2.50;0.80;;;24.00;99.00;;;;;;5070734;28;20039;-86
2021/07/17 12:21:55;;;;;;;6.20;1.02;;;24.00;98.70;;;;;;5071966;28;20036;-86
2021/07/17 12:24:43;;;;;;;;;;;24.00;98.70;;;;;;5072859;28;20122;-86
2021/07/17 12:27:32;;;;;;;4.25;1.00;;;24.00;97.60;;;;;;5084173;28;19956;-86
2021/07/17 12:30:19;;;;;;;5.75;0.98;;;24.20;97.70;;;;;;5066714;28;20048;-85
2021/07/17 12:33:27;;;;;;;2.22;0.82;;;24.30;96.40;;;;;;5091462;28;20036;-87
2021/07/17 12:36:16;;;;;;;2.58;0.93;;;24.30;96.90;;;;;;5070992;28;20122;-88
2021/07/17 12:39:03;;;;;;;3.75;0.80;;;24.40;96.30;;;;;;5067652;28;20493;-86
2021/07/17 12:41:53;;;;;;;5.30;0.98;;;24.40;95.70;;;;;;5078189;28;20036;-86
2021/07/17 12:44:54;;;;;;;2.53;0.68;;;24.30;95.90;;;;;;5079148;28;20150;-80
2021/07/17 12:47:46;;;;;;;4.45;0.80;;;24.20;94.50;;;;;;5088834;28;20100;-86
2021/07/17 12:50:33;;;;;;;2.55;0.70;;;24.20;93.60;;;;;;5077063;28;20548;-85
2021/07/17 12:53:24;;;;;;;3.30;0.60;;;24.20;93.90;;;;;;5087802;28;20105;-86
2021/07/17 12:56:13;;;;;;;10.05;1.50;;;24.20;92.80;;;;;;5071443;28;20496;-85
2021/07/17 12:59:01;;;;;;;3.45;1.10;;;24.30;93.40;;;;;;5080090;28;20048;-85
2021/07/17 13:01:51;;;;;;;3.43;0.90;;;24.30;92.80;;;;;;5060784;28;20097;-85
2021/07/17 13:04:44;;;;;;;4.15;0.90;;;24.50;91.70;;;;;;5093614;28;20420;-85
2021/07/17 13:07:33;;;;;;;5.80;1.17;;;24.60;91.30;;;;;;5077183;28;20044;-86
2021/07/17 13:10:33;;;;;;;6.32;0.80;;;24.70;93.10;;;;;;5077355;28;20040;-87
2021/07/17 13:13:26;;;;;;;2.40;1.02;;;24.80;92.70;;;;;;5111403;28;20038;-83
2021/07/17 13:16:13;;;;;;;2.83;0.80;;;24.70;93.80;;;;;;5091208;28;20040;-85
2021/07/17 13:19:06;;;;;;;3.15;0.77;;;24.50;94.10;;;;;;5080961;28;20051;-85
2021/07/17 13:22:01;;;;;;;2.78;0.90;;;24.50;95.30;;;;;;5091600;28;20169;-85
2021/07/17 13:25:10;;;;;;;3.25;1.00;;;24.80;94.00;;;;;;5095132;28;20044;-84
2021/07/17 13:28:03;;;;;;;2.38;1.00;;;25.00;94.50;;;;;;5075509;28;20123;-85
2021/07/17 13:30:50;;;;;;;3.28;1.42;;;25.10;93.30;;;;;;5072441;28;20040;-85
2021/07/17 13:33:37;;;;;;;3.17;1.13;;;25.50;91.50;;;;;;5088487;28;20497;-85
2021/07/17 13:36:26;;;;;;;4.15;0.80;;;25.40;91.10;;;;;;5070304;28;20168;-85
2021/07/17 13:39:13;;;;;;;2.57;0.83;;;25.40;91.90;;;;;;5072545;28;20052;-85
2021/07/17 13:42:08;;;;;;;4.88;0.88;;;25.60;90.90;;;;;;5073867;28;20032;-85
2021/07/17 13:45:05;;;;;;;3.63;1.42;;;25.50;89.00;;;;;;5077845;28;20044;-85
2021/07/17 13:47:57;;;;;;;2.97;1.00;;;25.60;90.40;;;;;;5073700;28;20519;-86
2021/07/17 13:50:45;;;;;;;3.47;1.17;;;25.80;89.50;;;;;;5073813;28;20040;-86
2021/07/17 13:53:34;;;;;;;2.90;1.10;;;26.00;91.10;;;;;;5073538;28;20043;-84
2021/07/17 13:56:28;;;;;;;9.80;3.03;;;25.90;90.70;;;;;;5065726;28;20523;-82
2021/07/17 13:59:25;;;;;;;2.65;1.20;;;25.60;88.30;;;;;;5071307;28;20181;-86
2021/07/17 14:02:12;;;;;;;4.05;1.40;;;25.80;86.40;;;;;;5075432;28;20040;-83
2021/07/17 14:04:59;;;;;;;8.23;1.80;;;25.40;88.70;;;;;;5070411;28;20044;-85
2021/07/17 14:07:46;;;;;;;2.45;0.85;;;25.50;89.10;;;;;;5074684;28;20169;-83
2021/07/17 14:10:35;;;;;;;2.10;1.00;;;25.60;89.30;;;;;;5075721;28;20131;-85
2021/07/17 14:13:23;;;;;;;2.88;1.08;;;25.80;89.50;;;;;;5073353;28;20036;-83
2021/07/17 14:16:11;;;;;;;5.50;1.20;;;26.00;87.60;;;;;;5068082;28;20097;-85
2021/07/17 14:18:59;;;;;;;2.95;1.10;;;25.90;85.70;;;;;;5072422;28;20058;-84
2021/07/17 14:21:46;;;;;;;2.50;1.08;;;25.90;85.90;;;;;;5092265;28;20090;-85
2021/07/17 14:24:33;;;;;;;6.63;0.98;;;25.90;87.00;;;;;;5075197;28;20058;-82
2021/07/17 14:27:21;;;;;;;5.35;1.15;;;25.80;87.50;;;;;;5074185;28;20044;-85
2021/07/17 14:30:10;;;;;;;2.50;0.70;;;26.00;88.90;;;;;;5070228;28;20138;-85
2021/07/17 14:33:13;;;;;;;1.45;0.70;;;26.10;88.20;;;;;;5072914;28;20089;-85
2021/07/17 14:36:00;;;;;;;2.45;0.68;;;25.80;89.10;;;;;;5075991;28;20048;-85
2021/07/17 14:38:47;;;;;;;2.55;0.60;;;25.80;86.80;;;;;;5072061;28;20144;-86